Time;durP1;ratioP1;P1;durP2;ratioP2;P2;SDS_P1;SDS_P2;PMS_P1;PMS_P2;Temp;Humidity;BMP_temperature;BMP_pressure;BME280_temperature;BME280_humidity;BME280_pressure;Samples;Min_cycle;Max_cycle;Signal;HPM_P1;HPM_P2
2023/05/13 00:02:09;;;;;;;6.80;1.88;;;15.50;99.90;;;;;;5099155;28;20542;-73
2023/05/13 00:04:38;;;;;;;2.97;1.73;;;15.50;99.90;;;;;;5099171;28;20571;-71
2023/05/13 00:07:07;;;;;;;3.78;1.25;;;15.40;99.90;;;;;;5097875;28;20313;-70
2023/05/13 00:09:32;;;;;;;1.65;1.33;;;15.40;99.90;;;;;;5096388;28;20081;-72
2023/05/13 00:12:02;;;;;;;5.68;1.60;;;15.40;99.90;;;;;;5102898;28;20146;-72
2023/05/13 00:14:27;;;;;;;4.07;1.30;;;15.30;99.90;;;;;;5095053;28;20040;-72
2023/05/13 00:16:53;;;;;;;2.97;1.45;;;15.30;99.90;;;;;;5093687;28;20092;-72
2023/05/13 00:19:22;;;;;;;2.28;1.35;;;15.20;99.90;;;;;;5096561;28;20040;-71
2023/05/13 00:21:47;;;;;;;2.15;1.02;;;15.20;99.90;;;;;;5092286;28;20491;-72
2023/05/13 00:24:13;;;;;;;1.73;0.90;;;15.10;99.90;;;;;;5098398;28;20042;-70
2023/05/13 00:26:41;;;;;;;2.72;1.40;;;15.00;99.90;;;;;;5095945;28;20370;-71
2023/05/13 00:29:16;;;;;;;4.93;1.10;;;15.00;99.90;;;;;;5100460;28;20122;-72
2023/05/13 00:31:44;;;;;;;2.25;1.27;;;15.00;99.90;;;;;;5099757;28;20391;-73
2023/05/13 00:34:13;;;;;;;3.60;1.50;;;15.00;99.90;;;;;;5100400;28;20036;-72
2023/05/13 00:36:38;;;;;;;3.08;1.58;;;14.90;99.90;;;;;;5096043;28;20040;-72
2023/05/13 00:39:04;;;;;;;5.75;1.08;;;14.90;99.90;;;;;;5099452;27;20702;-72
2023/05/13 00:41:33;;;;;;;2.42;1.13;;;14.80;99.90;;;;;;5097106;28;20036;-72
2023/05/13 00:43:58;;;;;;;2.72;1.20;;;14.80;99.90;;;;;;5096334;28;20054;-72
2023/05/13 00:46:31;;;;;;;2.35;1.08;;;14.80;99.90;;;;;;5098385;28;20483;-71
2023/05/13 00:49:01;;;;;;;6.68;1.52;;;14.70;99.90;;;;;;5094283;28;20046;-72
2023/05/13 00:51:31;;;;;;;2.50;1.20;;;14.70;99.90;;;;;;5095745;28;20028;-71
2023/05/13 00:53:58;;;;;;;2.03;1.10;;;14.70;99.90;;;;;;5094187;28;20036;-70
2023/05/13 00:56:29;;;;;;;3.95;1.00;;;14.70;99.90;;;;;;5095144;28;20492;-71
2023/05/13 00:58:58;;;;;;;5.90;1.45;;;14.60;99.90;;;;;;5094034;28;20028;-71
2023/05/13 01:02:01;;;;;;;3.17;1.20;;;14.60;99.90;;;;;;5097054;28;20040;-71
2023/05/13 01:04:43;;;;;;;5.30;1.65;;;14.50;99.90;;;;;;5125685;27;20645;-71
2023/05/13 01:07:41;;;;;;;2.88;1.30;;;14.50;99.90;;;;;;5095454;28;21577;-71
2023/05/13 01:10:26;;;;;;;3.90;1.63;;;14.40;99.90;;;;;;5097762;28;20120;-72
2023/05/13 01:12:55;;;;;;;6.63;1.70;;;14.40;99.90;;;;;;5093329;28;20507;-72
2023/05/13 01:15:25;;;;;;;4.37;1.33;;;14.30;99.90;;;;;;5094783;28;20097;-72
2023/05/13 01:18:13;;;;;;;11.85;1.88;;;14.30;99.90;;;;;;5089102;28;20059;-72
2023/05/13 01:20:43;;;;;;;2.88;1.30;;;14.30;99.90;;;;;;5086746;28;20069;-71
2023/05/13 01:23:12;;;;;;;2.22;1.25;;;14.30;99.90;;;;;;5089713;28;20048;-71
2023/05/13 01:25:38;;;;;;;4.65;1.70;;;14.30;99.90;;;;;;5086164;28;20105;-72
2023/05/13 01:28:05;;;;;;;3.72;1.60;;;14.20;99.90;;;;;;5096734;28;20055;-71
2023/05/13 01:30:35;;;;;;;2.58;1.52;;;14.10;99.90;;;;;;5088267;28;20036;-71
2023/05/13 01:33:09;;;;;;;2.03;1.17;;;14.20;99.90;;;;;;5089214;28;20439;-72
2023/05/13 01:35:35;;;;;;;4.80;1.42;;;14.20;99.90;;;;;;5092385;28;20103;-72
2023/05/13 01:38:07;;;;;;;4.43;1.63;;;14.20;99.90;;;;;;5085616;28;20112;-71
2023/05/13 01:40:33;;;;;;;4.45;1.55;;;14.20;99.90;;;;;;5090552;28;20027;-71
2023/05/13 01:42:59;;;;;;;8.10;1.83;;;14.20;99.90;;;;;;5095129;28;20036;-71
2023/05/13 01:45:29;;;;;;;4.30;1.20;;;14.20;99.90;;;;;;5058949;28;1091491;-71
2023/05/13 01:48:01;;;;;;;2.80;1.48;;;14.20;99.90;;;;;;5094642;28;20024;-71
2023/05/13 01:50:26;;;;;;;4.60;1.52;;;14.20;99.90;;;;;;5090016;28;20032;-72
2023/05/13 01:52:52;;;;;;;3.55;1.90;;;14.10;99.90;;;;;;5088036;28;20493;-71
2023/05/13 01:55:20;;;;;;;3.85;1.90;;;14.10;99.90;;;;;;5100922;28;20039;-72
2023/05/13 01:57:46;;;;;;;4.25;2.00;;;14.10;99.90;;;;;;5092499;28;20020;-71
2023/05/13 02:00:15;;;;;;;7.43;1.80;;;14.10;99.90;;;;;;5100443;28;20028;-71
2023/05/13 02:02:40;;;;;;;5.75;2.30;;;14.00;99.90;;;;;;5095417;28;20066;-71
2023/05/13 02:05:06;;;;;;;5.38;1.85;;;14.00;99.90;;;;;;5096266;28;20488;-71
2023/05/13 02:07:35;;;;;;;4.78;1.90;;;14.00;99.90;;;;;;5087667;28;20036;-72
2023/05/13 02:10:03;;;;;;;4.25;1.73;;;14.00;99.90;;;;;;5086956;28;20458;-71
2023/05/13 02:12:29;;;;;;;7.80;2.03;;;14.00;99.90;;;;;;5087426;28;20101;-71
2023/05/13 02:14:55;;;;;;;6.68;2.10;;;14.00;99.90;;;;;;5089908;28;20028;-71
2023/05/13 02:17:21;;;;;;;14.25;2.53;;;14.00;99.90;;;;;;5087846;28;20032;-71
2023/05/13 02:19:46;;;;;;;6.03;2.28;;;14.00;99.90;;;;;;5086739;28;20036;-72
2023/05/13 02:22:12;;;;;;;4.50;2.10;;;14.00;99.90;;;;;;5087403;28;20035;-72
2023/05/13 02:24:39;;;;;;;4.28;2.20;;;14.00;99.90;;;;;;5087695;28;20028;-72
2023/05/13 02:27:06;;;;;;;3.63;2.20;;;13.90;99.90;;;;;;5086625;28;20040;-71
2023/05/13 02:29:38;;;;;;;5.60;2.10;;;13.90;99.90;;;;;;5087942;28;20040;-71
2023/05/13 02:32:04;;;;;;;4.72;2.25;;;13.90;99.90;;;;;;5087515;28;20040;-71
2023/05/13 02:34:29;;;;;;;7.50;2.65;;;13.90;99.90;;;;;;5092843;28;20032;-71
2023/05/13 02:36:58;;;;;;;4.95;2.10;;;13.90;99.90;;;;;;5095014;28;20397;-71
2023/05/13 02:39:26;;;;;;;5.55;2.83;;;13.90;99.90;;;;;;5096201;28;20040;-72
2023/05/13 02:41:52;;;;;;;4.50;2.47;;;13.80;99.90;;;;;;5086143;28;20412;-72
2023/05/13 02:44:17;;;;;;;4.50;2.00;;;13.80;99.90;;;;;;5090843;28;20063;-72
2023/05/13 02:46:43;;;;;;;5.07;2.72;;;13.90;99.90;;;;;;5093556;28;20039;-72
2023/05/13 02:49:10;;;;;;;5.40;2.35;;;13.80;99.90;;;;;;5092398;28;20101;-71
2023/05/13 02:51:38;;;;;;;5.10;2.65;;;13.80;99.90;;;;;;5088363;28;20437;-72
2023/05/13 02:54:07;;;;;;;6.32;2.55;;;13.70;99.90;;;;;;5094934;28;20035;-72
2023/05/13 02:56:32;;;;;;;5.55;3.33;;;13.70;99.90;;;;;;5095802;28;20036;-71
2023/05/13 02:58:58;;;;;;;5.75;2.53;;;13.70;99.90;;;;;;5096168;28;20028;-72
2023/05/13 03:01:25;;;;;;;6.90;2.72;;;13.70;99.90;;;;;;5096254;28;20044;-72
2023/05/13 03:03:51;;;;;;;6.28;3.03;;;13.60;99.90;;;;;;5086777;28;20043;-71
2023/05/13 03:06:16;;;;;;;6.88;2.95;;;13.60;99.90;;;;;;5089014;28;20373;-70
2023/05/13 03:08:48;;;;;;;6.18;2.42;;;13.60;99.90;;;;;;5088699;28;20081;-71
2023/05/13 03:11:17;;;;;;;4.72;3.00;;;13.60;99.90;;;;;;5098102;28;20027;-71
2023/05/13 03:13:42;;;;;;;4.55;2.63;;;13.50;99.90;;;;;;5095474;28;20028;-74
2023/05/13 03:16:11;;;;;;;9.35;3.10;;;13.50;99.90;;;;;;5092777;28;20035;-71
2023/05/13 03:18:36;;;;;;;4.20;2.58;;;13.50;99.90;;;;;;5095268;28;20024;-72
2023/05/13 03:21:05;;;;;;;6.93;2.95;;;13.40;99.90;;;;;;5096563;28;20054;-72
2023/05/13 03:23:32;;;;;;;11.30;3.50;;;13.40;99.90;;;;;;5096559;28;20036;-72
2023/05/13 03:25:58;;;;;;;7.68;3.53;;;13.30;99.90;;;;;;5092094;28;20028;-74
2023/05/13 03:28:23;;;;;;;7.13;3.97;;;13.30;99.90;;;;;;5091371;28;20044;-72
2023/05/13 03:30:49;;;;;;;16.40;3.70;;;13.30;99.90;;;;;;5096474;28;20036;-72
2023/05/13 03:33:21;;;;;;;7.45;3.55;;;13.30;99.90;;;;;;5090180;28;20032;-73
2023/05/13 03:35:48;;;;;;;7.88;3.40;;;13.30;99.90;;;;;;5088166;28;20120;-72
2023/05/13 03:38:14;;;;;;;8.02;3.63;;;13.20;99.90;;;;;;5092493;28;20047;-72
2023/05/13 03:40:39;;;;;;;5.93;3.05;;;13.20;99.90;;;;;;5094229;28;20044;-72
2023/05/13 03:43:05;;;;;;;6.05;3.90;;;13.20;99.90;;;;;;5085095;28;20032;-71
2023/05/13 03:45:33;;;;;;;10.52;4.22;;;13.20;99.90;;;;;;5089918;28;20043;-71
2023/05/13 03:48:02;;;;;;;7.10;3.30;;;13.10;99.90;;;;;;5090358;28;20139;-72
2023/05/13 03:50:28;;;;;;;7.65;4.00;;;13.10;99.90;;;;;;5094077;28;20032;-71
2023/05/13 03:53:01;;;;;;;7.60;4.07;;;13.10;99.90;;;;;;5091766;28;20450;-72
2023/05/13 03:55:26;;;;;;;9.93;3.65;;;13.10;99.90;;;;;;5095843;28;20088;-73
2023/05/13 03:57:52;;;;;;;9.90;4.88;;;13.10;99.90;;;;;;5091275;28;20031;-72
2023/05/13 04:00:17;;;;;;;6.80;4.07;;;13.00;99.90;;;;;;5096391;28;20063;-71
2023/05/13 04:02:43;;;;;;;6.90;4.00;;;13.00;99.90;;;;;;5097464;27;20024;-73
2023/05/13 04:05:09;;;;;;;9.05;4.72;;;13.00;99.90;;;;;;5101874;28;20080;-71
2023/05/13 04:07:34;;;;;;;6.85;4.05;;;13.00;99.90;;;;;;5096721;27;20065;-72
2023/05/13 04:10:00;;;;;;;10.18;3.95;;;13.00;99.90;;;;;;5101470;27;20049;-71
2023/05/13 04:12:25;;;;;;;8.23;4.55;;;13.00;99.90;;;;;;5099200;28;20039;-71
2023/05/13 04:14:51;;;;;;;9.38;4.13;;;13.00;99.90;;;;;;5099007;28;20036;-72
2023/05/13 04:17:19;;;;;;;8.38;4.40;;;13.00;99.90;;;;;;5099025;27;20090;-71
2023/05/13 04:19:45;;;;;;;7.63;4.30;;;13.00;99.90;;;;;;5095127;28;20115;-71
2023/05/13 04:22:10;;;;;;;10.20;4.53;;;13.00;99.90;;;;;;5096012;28;20127;-71
2023/05/13 04:24:36;;;;;;;9.35;4.75;;;13.00;99.90;;;;;;5094237;28;20039;-71
2023/05/13 04:27:02;;;;;;;9.98;4.55;;;13.00;99.90;;;;;;5093824;28;20043;-71
2023/05/13 04:29:37;;;;;;;8.07;4.45;;;13.00;99.90;;;;;;5095434;28;20126;-71
2023/05/13 04:32:06;;;;;;;8.55;4.18;;;13.00;99.90;;;;;;5087584;28;20043;-72
2023/05/13 04:34:31;;;;;;;7.70;3.80;;;13.00;99.90;;;;;;5097249;28;20492;-71
2023/05/13 04:37:00;;;;;;;9.18;4.00;;;13.10;99.90;;;;;;5100199;28;20032;-71
2023/05/13 04:39:34;;;;;;;8.45;5.05;;;13.00;99.90;;;;;;5100674;27;20040;-72
2023/05/13 04:42:09;;;;;;;11.38;4.78;;;13.10;99.90;;;;;;5091906;28;20036;-70
2023/05/13 04:44:41;;;;;;;9.60;4.70;;;13.10;99.90;;;;;;5097317;28;20047;-71
2023/05/13 04:47:10;;;;;;;7.40;4.50;;;13.10;99.90;;;;;;5088198;28;20430;-71
2023/05/13 04:49:35;;;;;;;10.90;5.43;;;13.10;99.90;;;;;;5095241;28;20036;-71
2023/05/13 04:52:02;;;;;;;8.70;4.63;;;13.10;99.90;;;;;;5090345;28;20677;-71
2023/05/13 04:54:32;;;;;;;9.88;5.07;;;13.10;99.90;;;;;;5099059;28;20644;-73
2023/05/13 04:57:01;;;;;;;12.98;5.28;;;13.10;99.90;;;;;;5100860;27;20365;-71
2023/05/13 04:59:31;;;;;;;9.90;5.18;;;13.20;99.90;;;;;;5096666;28;20048;-71
2023/05/13 05:01:56;;;;;;;10.90;5.38;;;13.30;99.90;;;;;;5100473;28;20032;-71
2023/05/13 05:04:23;;;;;;;11.07;5.38;;;13.30;99.90;;;;;;5098211;28;20042;-73
2023/05/13 05:06:48;;;;;;;8.45;4.80;;;13.40;99.90;;;;;;5092486;28;20034;-72
2023/05/13 05:09:17;;;;;;;12.77;4.63;;;13.40;99.90;;;;;;5095700;28;20036;-71
2023/05/13 05:11:43;;;;;;;10.80;4.68;;;13.40;99.90;;;;;;5091806;28;20035;-75
2023/05/13 05:14:08;;;;;;;8.05;4.63;;;13.50;99.90;;;;;;5093656;28;20127;-72
2023/05/13 05:16:37;;;;;;;8.85;4.85;;;13.50;99.90;;;;;;5093440;28;20531;-71
2023/05/13 05:19:08;;;;;;;9.45;4.57;;;13.60;99.90;;;;;;5086529;28;20043;-72
2023/05/13 05:21:37;;;;;;;11.23;4.78;;;13.60;99.90;;;;;;5093981;28;20036;-72
2023/05/13 05:24:04;;;;;;;8.23;4.63;;;13.70;99.90;;;;;;5093477;28;20055;-73
2023/05/13 05:26:29;;;;;;;10.15;3.75;;;13.80;99.90;;;;;;5096554;28;20107;-71
2023/05/13 05:28:55;;;;;;;10.05;4.15;;;13.80;99.90;;;;;;5100021;27;20062;-72
2023/05/13 05:31:30;;;;;;;7.78;4.38;;;13.80;99.90;;;;;;5096687;28;20434;-72
2023/05/13 05:34:01;;;;;;;11.00;4.55;;;13.90;99.90;;;;;;5094606;28;20043;-71
2023/05/13 05:36:28;;;;;;;8.40;4.55;;;13.90;99.90;;;;;;5094833;28;20411;-72
2023/05/13 05:38:53;;;;;;;9.95;4.22;;;14.00;99.90;;;;;;5092539;28;20561;-71
2023/05/13 05:41:23;;;;;;;8.57;3.88;;;14.20;99.90;;;;;;5096322;28;20040;-71
2023/05/13 05:43:49;;;;;;;8.02;4.20;;;14.50;99.90;;;;;;5098113;28;20035;-72
2023/05/13 05:46:17;;;;;;;10.77;4.07;;;14.60;99.90;;;;;;5099758;28;20369;-71
2023/05/13 05:48:43;;;;;;;8.00;3.95;;;14.90;99.90;;;;;;5096352;28;20028;-75
2023/05/13 05:51:09;;;;;;;10.88;3.58;;;15.10;99.90;;;;;;5092645;28;20077;-71
2023/05/13 05:53:36;;;;;;;10.85;3.55;;;15.50;99.90;;;;;;5096155;28;20073;-72
2023/05/13 05:56:02;;;;;;;5.65;3.15;;;16.00;99.90;;;;;;5094390;28;20060;-71
2023/05/13 05:58:28;;;;;;;8.93;3.50;;;16.50;99.90;;;;;;5089845;28;20042;-72
2023/05/13 06:01:00;;;;;;;6.60;3.30;;;17.00;99.90;;;;;;5089594;28;20024;-71
2023/05/13 06:03:26;;;;;;;6.13;3.08;;;18.00;99.90;;;;;;5092025;28;20038;-71
2023/05/13 06:05:52;;;;;;;6.65;2.53;;;18.70;99.90;;;;;;5090288;28;20031;-72
2023/05/13 06:08:18;;;;;;;7.25;2.30;;;19.50;99.90;;;;;;5093324;28;20040;-72
2023/05/13 06:10:46;;;;;;;6.47;2.10;;;20.70;99.90;;;;;;5088849;28;20043;-73
2023/05/13 06:13:15;;;;;;;4.90;2.10;;;21.40;99.90;;;;;;5096008;28;20046;-72
2023/05/13 06:15:41;;;;;;;4.97;2.45;;;22.20;99.90;;;;;;5096530;28;20485;-72
2023/05/13 06:18:06;;;;;;;9.50;2.40;;;22.60;99.90;;;;;;5099322;28;20038;-71
2023/05/13 06:20:35;;;;;;;5.47;2.22;;;23.30;99.90;;;;;;5097662;28;20073;-71
2023/05/13 06:23:07;;;;;;;5.28;2.15;;;23.40;99.60;;;;;;5088524;28;20039;-70
2023/05/13 06:25:33;;;;;;;3.25;2.25;;;23.40;98.90;;;;;;5093701;28;20032;-72
2023/05/13 06:28:05;;;;;;;3.75;2.10;;;23.60;98.20;;;;;;5096032;28;20168;-71
2023/05/13 06:30:31;;;;;;;6.65;2.20;;;23.70;98.30;;;;;;5092290;28;20055;-72
2023/05/13 06:32:59;;;;;;;5.03;2.58;;;24.10;97.20;;;;;;5092124;28;20048;-71
2023/05/13 06:35:28;;;;;;;5.53;2.00;;;24.10;96.90;;;;;;5097647;28;20047;-72
2023/05/13 06:37:53;;;;;;;5.63;2.10;;;24.60;95.80;;;;;;5089386;28;20024;-71
2023/05/13 06:40:19;;;;;;;5.78;2.33;;;24.60;96.40;;;;;;5090094;28;21450;-71
2023/05/13 06:42:45;;;;;;;7.07;2.10;;;25.10;95.60;;;;;;5089176;28;20119;-72
2023/05/13 06:45:10;;;;;;;7.80;2.47;;;25.20;94.50;;;;;;5091921;28;20540;-72
2023/05/13 06:47:36;;;;;;;7.75;2.30;;;24.70;94.60;;;;;;5088325;28;20112;-71
2023/05/13 06:50:02;;;;;;;4.80;2.20;;;25.30;94.90;;;;;;5088542;28;20039;-71
2023/05/13 06:52:29;;;;;;;4.50;2.70;;;25.30;93.30;;;;;;5092154;28;20114;-72
2023/05/13 06:54:55;;;;;;;4.28;2.10;;;25.10;93.70;;;;;;5088171;28;20039;-71
2023/05/13 06:57:20;;;;;;;4.57;2.13;;;25.10;93.70;;;;;;5089283;28;20052;-70
2023/05/13 06:59:46;;;;;;;4.22;2.42;;;25.20;93.70;;;;;;5093581;28;20165;-72
2023/05/13 07:02:11;;;;;;;4.70;2.42;;;25.50;94.10;;;;;;5092351;28;20496;-71
2023/05/13 07:04:37;;;;;;;10.43;2.95;;;26.10;94.20;;;;;;5088493;28;20383;-71
2023/05/13 07:07:03;;;;;;;5.72;2.50;;;26.60;92.50;;;;;;5092186;28;20046;-71
2023/05/13 07:09:28;;;;;;;4.50;2.22;;;26.40;93.10;;;;;;5089716;28;20031;-71
2023/05/13 07:11:54;;;;;;;3.85;2.13;;;27.00;93.10;;;;;;5088610;28;20027;-71
2023/05/13 07:14:20;;;;;;;7.28;2.90;;;27.20;92.90;;;;;;5091050;28;20044;-74
2023/05/13 07:16:46;;;;;;;6.07;2.60;;;27.30;91.70;;;;;;5093632;28;20054;-72
2023/05/13 07:19:11;;;;;;;4.53;2.47;;;26.90;91.30;;;;;;5101318;28;20542;-71
2023/05/13 07:21:43;;;;;;;5.63;2.83;;;27.20;91.90;;;;;;5095091;28;20407;-71
2023/05/13 07:24:08;;;;;;;6.82;2.72;;;26.90;91.10;;;;;;5095509;28;20040;-71
2023/05/13 07:26:34;;;;;;;6.50;2.58;;;27.20;91.00;;;;;;5096551;28;20046;-70
2023/05/13 07:29:02;;;;;;;3.92;2.65;;;27.20;91.30;;;;;;5092906;28;20028;-71
2023/05/13 07:31:29;;;;;;;8.85;2.83;;;27.20;90.90;;;;;;5096713;28;20032;-71
2023/05/13 07:33:57;;;;;;;4.03;2.90;;;27.20;90.70;;;;;;5097935;28;20107;-71
2023/05/13 07:36:23;;;;;;;4.00;2.90;;;26.80;91.20;;;;;;5093717;28;20094;-71
2023/05/13 07:38:49;;;;;;;7.78;2.95;;;26.30;91.10;;;;;;5099308;28;20475;-73
2023/05/13 07:41:15;;;;;;;5.10;2.30;;;26.00;91.20;;;;;;5096387;28;20021;-71
2023/05/13 07:43:46;;;;;;;5.40;2.35;;;25.30;91.30;;;;;;5095926;28;20043;-72
2023/05/13 07:46:18;;;;;;;4.20;2.25;;;24.80;92.00;;;;;;5098618;28;20047;-72
2023/05/13 07:48:47;;;;;;;5.63;2.47;;;24.00;92.20;;;;;;5096426;28;20090;-70
2023/05/13 07:51:13;;;;;;;4.80;2.10;;;23.50;92.70;;;;;;5097814;28;20107;-70
2023/05/13 07:53:38;;;;;;;4.25;1.98;;;22.80;93.40;;;;;;5102715;28;20036;-72
2023/05/13 07:56:06;;;;;;;3.33;1.30;;;22.40;93.80;;;;;;5096883;28;20063;-72
2023/05/13 07:58:36;;;;;;;5.25;1.95;;;22.10;95.00;;;;;;5099718;28;20039;-71
2023/05/13 08:01:03;;;;;;;8.65;2.35;;;21.90;95.00;;;;;;5095874;28;20515;-72
2023/05/13 08:03:28;;;;;;;7.50;2.05;;;21.60;95.20;;;;;;5100490;28;20483;-71
2023/05/13 08:05:54;;;;;;;13.35;2.40;;;21.60;95.90;;;;;;5100965;28;20047;-72
2023/05/13 08:08:22;;;;;;;5.68;2.50;;;21.50;95.90;;;;;;5097513;28;20427;-70
2023/05/13 08:10:48;;;;;;;4.22;1.67;;;21.40;96.10;;;;;;5099586;28;20062;-72
2023/05/13 08:13:13;;;;;;;4.60;2.50;;;21.30;96.80;;;;;;5096953;28;20059;-72
2023/05/13 08:15:42;;;;;;;8.32;2.65;;;21.20;97.50;;;;;;5098702;28;20058;-72
2023/05/13 08:18:08;;;;;;;6.13;2.33;;;21.00;97.30;;;;;;5097332;28;20105;-72
2023/05/13 08:20:36;;;;;;;3.47;1.55;;;21.00;96.80;;;;;;5100822;28;20036;-71
2023/05/13 08:23:02;;;;;;;4.43;2.22;;;20.80;97.00;;;;;;5100825;28;20028;-72
2023/05/13 08:25:31;;;;;;;3.75;1.92;;;20.80;97.30;;;;;;5096349;28;20063;-71
2023/05/13 08:27:56;;;;;;;5.07;2.40;;;20.60;97.20;;;;;;5100744;28;20545;-71
2023/05/13 08:30:22;;;;;;;5.45;1.73;;;20.70;97.20;;;;;;5098016;28;20040;-72
2023/05/13 08:32:48;;;;;;;3.63;2.05;;;20.90;97.40;;;;;;5088530;28;20028;-71
2023/05/13 08:35:13;;;;;;;4.95;2.13;;;21.00;97.60;;;;;;5094046;28;20104;-72
2023/05/13 08:37:45;;;;;;;11.13;2.30;;;21.10;97.00;;;;;;5091894;28;20060;-72
2023/05/13 08:40:11;;;;;;;7.95;2.28;;;20.90;97.10;;;;;;5086744;28;20101;-72
2023/05/13 08:42:38;;;;;;;8.43;2.15;;;20.90;97.60;;;;;;5094473;28;20464;-72
2023/05/13 08:45:06;;;;;;;3.40;1.80;;;20.80;98.20;;;;;;5091438;28;24289;-71
2023/05/13 08:47:39;;;;;;;3.17;1.60;;;20.90;98.80;;;;;;5089987;28;20061;-70
2023/05/13 08:50:09;;;;;;;3.05;1.70;;;20.80;98.20;;;;;;5089838;28;20117;-71
2023/05/13 08:52:34;;;;;;;3.60;1.95;;;20.80;99.00;;;;;;5120225;27;20118;-71
2023/05/13 08:55:00;;;;;;;6.65;1.98;;;20.80;98.60;;;;;;5088979;28;20715;-72
2023/05/13 08:57:26;;;;;;;13.18;2.55;;;20.80;98.80;;;;;;5089994;28;20024;-72
2023/05/13 08:59:52;;;;;;;6.55;1.88;;;20.70;98.70;;;;;;5095269;28;20028;-72
2023/05/13 09:02:18;;;;;;;4.78;2.10;;;20.80;99.20;;;;;;5093188;28;20028;-72
2023/05/13 09:04:52;;;;;;;4.35;2.10;;;20.80;98.40;;;;;;5088918;28;20033;-72
2023/05/13 09:07:18;;;;;;;4.45;2.10;;;20.70;98.90;;;;;;5089636;28;20039;-72
2023/05/13 09:09:44;;;;;;;4.55;1.85;;;20.70;98.80;;;;;;5091514;28;20450;-72
2023/05/13 09:12:10;;;;;;;5.60;2.20;;;20.70;99.00;;;;;;5087730;28;20020;-71
2023/05/13 09:14:37;;;;;;;7.25;2.05;;;20.80;98.60;;;;;;5088423;28;20195;-71
2023/05/13 09:17:06;;;;;;;3.88;2.25;;;20.80;99.20;;;;;;5092442;28;20559;-72
2023/05/13 09:19:35;;;;;;;3.65;2.05;;;20.80;99.30;;;;;;5088784;28;20036;-72
2023/05/13 09:22:00;;;;;;;5.22;2.08;;;20.90;98.30;;;;;;5087530;28;20029;-73
2023/05/13 09:24:32;;;;;;;5.22;1.95;;;20.90;99.00;;;;;;5089857;28;20039;-72
2023/05/13 09:26:58;;;;;;;6.45;2.30;;;20.90;99.30;;;;;;5088640;28;20480;-73
2023/05/13 09:29:30;;;;;;;6.00;2.35;;;21.00;99.10;;;;;;5087800;28;20043;-74
2023/05/13 09:31:58;;;;;;;9.88;2.40;;;20.90;99.50;;;;;;5086027;28;20392;-72
2023/05/13 09:34:33;;;;;;;5.03;2.05;;;21.00;99.60;;;;;;5092099;28;20151;-71
2023/05/13 09:37:02;;;;;;;6.40;2.78;;;21.10;99.50;;;;;;5093730;28;20028;-72
2023/05/13 09:39:51;;;;;;;3.95;2.40;;;21.10;99.50;;;;;;5093198;28;20499;-72
2023/05/13 09:42:18;;;;;;;5.63;2.20;;;21.10;99.70;;;;;;5085499;28;20449;-72
2023/05/13 09:44:47;;;;;;;6.85;2.10;;;21.20;99.50;;;;;;5094460;28;20035;-73
2023/05/13 09:47:16;;;;;;;5.23;2.43;;;21.20;99.20;;;;;;5085120;28;20043;-71
2023/05/13 09:49:44;;;;;;;3.35;1.98;;;21.20;99.50;;;;;;5095336;28;20028;-72
2023/05/13 09:52:16;;;;;;;7.43;2.67;;;21.30;99.90;;;;;;5088282;28;20072;-72
2023/05/13 09:54:44;;;;;;;5.65;2.22;;;21.30;99.80;;;;;;5094197;28;20448;-72
2023/05/13 09:57:13;;;;;;;5.22;2.28;;;21.30;99.80;;;;;;5086637;28;20101;-72
2023/05/13 09:59:40;;;;;;;4.38;2.05;;;21.10;99.70;;;;;;5093284;28;20448;-72
2023/05/13 10:02:09;;;;;;;4.97;2.28;;;21.10;99.90;;;;;;5088333;28;20044;-73
2023/05/13 10:04:35;;;;;;;4.95;2.10;;;21.10;99.90;;;;;;5090192;28;20035;-70
2023/05/13 10:07:02;;;;;;;9.60;2.42;;;21.20;99.90;;;;;;5087268;28;20028;-70
2023/05/13 10:09:35;;;;;;;5.70;3.15;;;20.90;99.90;;;;;;5088969;28;20048;-71
2023/05/13 10:12:09;;;;;;;5.05;2.63;;;20.80;99.90;;;;;;5086898;28;20058;-72
2023/05/13 10:14:38;;;;;;;7.25;2.10;;;20.80;99.90;;;;;;5086421;28;20043;-72
2023/05/13 10:17:05;;;;;;;9.55;2.58;;;20.70;99.90;;;;;;5087805;28;20123;-72
2023/05/13 10:19:31;;;;;;;6.82;2.63;;;20.60;99.90;;;;;;5090539;28;20043;-71
2023/05/13 10:21:58;;;;;;;5.30;2.00;;;20.50;99.90;;;;;;5087940;28;20032;-71
2023/05/13 10:24:25;;;;;;;7.20;2.30;;;20.50;99.90;;;;;;5088070;28;20048;-72
2023/05/13 10:26:52;;;;;;;7.38;2.40;;;20.50;99.90;;;;;;5090611;28;20036;-72
2023/05/13 10:29:18;;;;;;;6.20;2.05;;;20.50;99.90;;;;;;5087808;28;20039;-71
2023/05/13 10:31:45;;;;;;;5.80;3.20;;;20.60;99.90;;;;;;5089228;28;20028;-71
2023/05/13 10:34:14;;;;;;;6.07;2.70;;;20.80;99.90;;;;;;5091878;28;20336;-72
2023/05/13 10:37:08;;;;;;;5.20;2.90;;;20.80;99.90;;;;;;5090357;28;20028;-71
2023/05/13 10:39:54;;;;;;;8.85;2.63;;;20.90;99.90;;;;;;5089997;28;20065;-71
2023/05/13 10:42:41;;;;;;;4.78;2.20;;;20.90;99.90;;;;;;5092572;28;20046;-71
2023/05/13 10:45:08;;;;;;;4.20;2.13;;;21.00;99.90;;;;;;5089788;28;20031;-71
2023/05/13 10:47:35;;;;;;;6.53;2.20;;;21.10;99.90;;;;;;5088163;28;20085;-71
2023/05/13 10:50:20;;;;;;;4.40;2.70;;;21.10;99.90;;;;;;5088543;28;20082;-71
2023/05/13 10:52:46;;;;;;;7.75;2.70;;;21.20;99.90;;;;;;5089165;28;20036;-73
2023/05/13 10:55:18;;;;;;;5.47;2.13;;;21.00;99.90;;;;;;5094718;28;20063;-72
2023/05/13 10:58:21;;;;;;;7.13;2.20;;;21.20;99.90;;;;;;5095037;28;20453;-72
2023/05/13 11:00:49;;;;;;;4.65;2.47;;;21.30;99.90;;;;;;5091906;28;20066;-72
2023/05/13 11:03:21;;;;;;;7.93;2.58;;;21.40;99.90;;;;;;5098920;28;20135;-72
2023/05/13 11:06:03;;;;;;;7.22;2.78;;;21.50;99.90;;;;;;5097911;28;20043;-73
2023/05/13 11:08:49;;;;;;;5.50;2.20;;;21.60;99.90;;;;;;5100052;28;20051;-71
2023/05/13 11:11:22;;;;;;;8.98;2.33;;;21.70;99.90;;;;;;5125187;27;20067;-70
2023/05/13 11:13:55;;;;;;;2.88;2.08;;;21.60;99.70;;;;;;5093844;28;20395;-72
2023/05/13 11:16:22;;;;;;;6.45;2.53;;;21.60;99.60;;;;;;5093963;28;20043;-72
2023/05/13 11:18:51;;;;;;;5.75;2.67;;;21.60;99.90;;;;;;5091381;28;20040;-71
2023/05/13 11:21:47;;;;;;;4.97;2.40;;;21.70;99.60;;;;;;5090510;28;20038;-71
2023/05/13 11:24:16;;;;;;;7.40;2.55;;;21.80;99.70;;;;;;5089059;28;20062;-71
2023/05/13 11:26:50;;;;;;;4.82;2.13;;;21.70;99.80;;;;;;5124412;27;21025;-72
2023/05/13 11:29:46;;;;;;;5.10;2.25;;;21.60;99.90;;;;;;5089936;28;20024;-71
2023/05/13 11:32:12;;;;;;;5.75;2.55;;;21.50;99.90;;;;;;5080988;28;20032;-71
2023/05/13 11:34:48;;;;;;;10.45;2.72;;;21.40;99.90;;;;;;5091561;28;20491;-73
2023/05/13 11:37:14;;;;;;;8.23;2.40;;;21.40;99.90;;;;;;5094565;28;20035;-72
2023/05/13 11:39:43;;;;;;;3.70;2.13;;;21.40;99.90;;;;;;5093533;28;20399;-72
2023/05/13 11:42:09;;;;;;;4.22;1.80;;;21.50;99.90;;;;;;5087626;28;20032;-72
2023/05/13 11:44:43;;;;;;;5.65;2.40;;;21.40;99.90;;;;;;5092019;28;20061;-72
2023/05/13 11:47:08;;;;;;;9.02;3.45;;;21.50;99.90;;;;;;5093479;28;20084;-72
2023/05/13 11:49:42;;;;;;;4.38;2.20;;;21.50;99.90;;;;;;5095457;28;20039;-72
2023/05/13 11:52:12;;;;;;;9.70;2.45;;;21.60;99.90;;;;;;5086843;28;20032;-72
2023/05/13 11:54:50;;;;;;;3.88;2.28;;;21.60;99.90;;;;;;5094053;28;20491;-71
2023/05/13 11:57:34;;;;;;;2.97;1.88;;;21.60;99.90;;;;;;5094538;28;20040;-71
2023/05/13 12:00:09;;;;;;;6.38;2.28;;;21.50;99.90;;;;;;5094419;28;20028;-71
2023/05/13 12:02:45;;;;;;;2.90;1.77;;;21.50;99.90;;;;;;5093463;28;20523;-70
2023/05/13 12:05:13;;;;;;;2.90;1.85;;;21.50;99.90;;;;;;5086595;28;20036;-73
2023/05/13 12:07:39;;;;;;;5.85;2.08;;;21.60;99.90;;;;;;5089621;28;20488;-72
2023/05/13 12:10:11;;;;;;;6.40;2.25;;;21.60;99.90;;;;;;5098811;28;20050;-71
2023/05/13 12:12:42;;;;;;;4.38;2.28;;;21.60;99.90;;;;;;5090252;28;20629;-71
2023/05/13 12:15:18;;;;;;;3.50;2.17;;;21.50;99.90;;;;;;5088440;28;20085;-72
2023/05/13 12:17:48;;;;;;;4.75;2.15;;;21.60;99.90;;;;;;5099100;27;20025;-72
2023/05/13 12:20:21;;;;;;;4.57;2.45;;;21.50;99.90;;;;;;5095400;28;20054;-72
2023/05/13 12:22:47;;;;;;;10.20;2.42;;;21.60;99.90;;;;;;5091465;28;20130;-73
2023/05/13 12:25:44;;;;;;;4.88;1.90;;;21.60;99.90;;;;;;5092542;28;20173;-71
2023/05/13 12:28:21;;;;;;;6.43;2.28;;;21.50;99.90;;;;;;5087777;28;20024;-73
2023/05/13 12:30:59;;;;;;;5.45;3.00;;;21.60;99.90;;;;;;5095737;27;20032;-73
2023/05/13 12:33:39;;;;;;;5.65;1.83;;;21.50;99.90;;;;;;5097340;28;20040;-72
2023/05/13 12:36:20;;;;;;;5.70;2.65;;;21.50;99.90;;;;;;5085806;28;20052;-71
2023/05/13 12:39:05;;;;;;;3.17;2.17;;;21.40;99.90;;;;;;5095974;28;20043;-73
2023/05/13 12:41:33;;;;;;;5.25;2.50;;;21.40;99.90;;;;;;5095370;28;20044;-72
2023/05/13 12:44:00;;;;;;;4.82;2.08;;;21.50;99.90;;;;;;5098476;28;20051;-72
2023/05/13 12:46:33;;;;;;;5.10;1.92;;;21.50;99.90;;;;;;5095805;28;20036;-71
2023/05/13 12:49:07;;;;;;;4.30;2.13;;;21.40;99.90;;;;;;5092050;28;20452;-72
2023/05/13 12:51:33;;;;;;;5.47;2.03;;;21.40;99.90;;;;;;5093776;28;20031;-71
2023/05/13 12:54:02;;;;;;;5.15;2.28;;;21.40;99.90;;;;;;5091088;28;20054;-71
2023/05/13 12:56:27;;;;;;;5.30;2.08;;;21.40;99.90;;;;;;5097095;28;20395;-72